Latest Weather Observations for Temora

IDN60801

Issued at 4:03 am EDT Wednesday 19 February 2020 (issued every 10 minutes, with the page automatically refreshed every 10 minutes)

About weather observations | Map of weather stations | Latest weather observations for NSW | Other Formats
Station Details ID: 073151 Name: TEMORA AIRPORT Lat: -34.43 Lon: 147.51 Height: 280.5 m
Data from the previous 72 hours. | See also: Recent months at Temora
Date/Time
EDT
Temp
°C
App
Temp
°C
Dew
Point
°C
Rel
Hum
%
Delta-T
°C
Wind Press
QNH
hPa
Press
MSL
hPa
Rain since
9am
mm
Dir  Spd
km/h
Gust
km/h
Spd
kts
Gust
kts
19/04:00am 17.0 14.1 9.7 62 3.9 SW 15 24 8 13 1006.9 1005.5 0.0
19/03:30am 17.6 13.7 9.5 59 4.3 SW 20 35 11 19 1006.9 1005.5 0.0
19/03:00am 18.1 14.8 9.7 58 4.5 WSW 17 26 9 14 1006.8 1005.4 0.0
19/02:30am 18.5 14.8 9.3 55 4.9 WSW 19 24 10 13 1006.9 1005.5 0.0
19/02:00am 19.6 14.5 9.2 51 5.6 WSW 26 43 14 23 1006.9 1005.5 0.0
19/01:30am 20.2 15.4 8.8 48 6.1 WSW 24 33 13 18 1006.9 1005.5 0.0
19/01:00am 20.8 16.6 8.4 45 6.6 WSW 20 33 11 18 1007.4 1005.9 0.0
19/12:30am 21.2 16.6 8.1 43 6.9 WSW 22 30 12 16 1007.0 1005.6 0.0
19/12:00am 21.7 16.9 7.5 40 7.5 WSW 22 35 12 19 1006.9 1005.5 0.0
 
Date/Time
EDT
Temp
°C
App
Temp
°C
Dew
Point
°C
Rel
Hum
%
Delta-T
°C
Wind Press
QNH
hPa
Press
MSL
hPa
Rain since
9am
mm
Dir  Spd
km/h
Gust
km/h
Spd
kts
Gust
kts
18/11:30pm 22.1 16.4 6.7 37 8.0 WSW 26 35 14 19 1006.9 1005.5 0.0
18/11:00pm 23.0 16.9 6.7 35 8.5 WSW 28 39 15 21 1007.0 1005.6 0.0
18/10:30pm 23.5 16.5 5.9 32 9.1 WSW 32 50 17 27 1006.7 1005.3 0.0
18/10:22pm 23.7 17.0 5.6 31 9.3 WSW 30 50 16 27 1006.6 1005.2 0.0
18/10:00pm 24.3 17.6 5.6 30 9.7 WSW 30 44 16 24 1006.4 1005.0 0.0
18/09:30pm 25.3 17.5 5.0 27 10.4 WSW 35 56 19 30 1005.8 1004.3 0.0
18/09:00pm 26.3 19.0 5.3 26 10.9 WSW 33 56 18 30 1005.1 1003.6 0.0
18/08:53pm 26.6 19.3 4.4 24 11.3 WSW 32 54 17 29 1005.0 1003.5 0.0
18/08:30pm 27.0 18.4 2.8 21 12.0 WSW 37 48 20 26 1004.4 1002.9 0.0
18/08:03pm 27.8 18.8 4.8 23 11.9 WSW 41 59 22 32 1004.0 1002.5 0.0
18/08:00pm 28.0 19.7 6.2 25 11.6 WSW 39 54 21 29 1003.9 1002.4 0.0
18/07:36pm 28.7 21.7 6.7 25 11.8 WSW 33 52 18 28 1003.6 1002.1 0.0
18/07:30pm 28.9 21.2 6.9 25 11.9 WSW 37 52 20 28 1003.4 1002.0 0.0
18/07:00pm 29.8 22.0 9.9 29 11.4 WSW 41 54 22 29 1002.9 1001.4 0.0
18/06:57pm 29.9 22.5 9.9 29 11.4 WSW 39 54 21 29 1002.9 1001.4 0.0
18/06:31pm 33.0 26.0 8.5 22 13.9 W 35 63 19 34 1002.3 1000.8 0.0
18/06:30pm 33.6 26.6 6.8 19 14.8 W 33 48 18 26 1002.2 1000.7 0.0
18/06:23pm 33.3 27.1 8.0 21 14.2 WNW 30 48 16 26 1002.1 1000.6 0.0
18/06:00pm 33.9 28.0 9.2 22 14.3 WNW 30 39 16 21 1002.1 1000.6 0.0
18/05:32pm 34.4 29.0 9.6 22 14.4 NW 28 50 15 27 1002.1 1000.6 0.0
18/05:30pm 34.3 29.1 10.2 23 14.1 WNW 28 39 15 21 1002.3 1000.8 0.0
18/05:00pm 34.9 29.2 11.3 24 14.1 NW 32 44 17 24 1003.0 1001.5 0.0
18/04:30pm 34.0 29.2 12.9 28 12.8 NW 30 41 16 22 1003.6 1002.1 0.0
18/04:00pm 33.2 29.6 15.2 33 11.3 NW 28 43 15 23 1004.1 1002.6 0.0
18/03:30pm 32.3 29.8 16.2 38 10.2 NW 24 35 13 19 1004.5 1003.0 0.0
18/03:00pm 32.1 30.0 17.2 41 9.6 NNW 24 35 13 19 1005.0 1003.5 0.0
18/02:30pm 32.3 29.1 16.2 38 10.2 NNW 28 37 15 20 1005.4 1003.9 0.0
18/02:00pm 31.7 29.5 16.0 38 9.9 NNW 22 30 12 16 1005.9 1004.4 0.0
18/01:30pm 31.5 28.8 15.5 38 10.0 NNW 24 37 13 20 1006.4 1005.0 0.0
18/01:00pm 31.4 31.0 18.0 44 8.7 N 17 28 9 15 1007.1 1005.7 0.0
18/12:30pm 30.0 29.1 18.1 49 7.7 N 20 33 11 18 1007.9 1006.4 0.0
18/12:00pm 30.0 29.4 18.8 51 7.3 N 20 28 11 15 1008.4 1006.9 0.0
18/11:30am 28.8 27.8 18.0 52 7.0 N 20 28 11 15 1008.7 1007.2 0.0
18/11:00am 27.6 26.0 18.3 57 6.0 N 24 32 13 17 1008.9 1007.4 0.0
18/10:30am 26.8 25.6 19.2 63 4.9 N 24 32 13 17 1009.2 1007.7 0.0
18/10:00am 26.0 24.8 19.2 66 4.4 N 24 37 13 20 1009.3 1007.8 0.0
18/09:30am 25.2 23.9 19.1 69 3.9 N 24 30 13 16 1009.5 1008.1 0.0
18/09:00am 24.5 23.2 19.1 72 3.5 N 24 33 13 18 1009.6 1008.2 0.0
18/08:30am 23.9 22.6 19.0 74 3.2 NNE 24 30 13 16 1009.3 1007.8 0.0
18/08:00am 22.9 21.8 18.7 77 2.7 NNE 22 28 12 15 1009.2 1007.7 0.0
18/07:30am 22.6 22.5 18.8 79 2.4 NNE 17 22 9 12 1009.4 1007.9 0.0
18/07:00am 22.1 22.0 18.7 81 2.2 NNE 17 22 9 12 1009.3 1007.8 0.0
18/06:30am 22.3 21.8 18.7 80 2.3 NNE 19 22 10 12 1009.4 1007.9 0.0
18/06:00am 22.6 22.5 18.8 79 2.4 NNE 17 20 9 11 1009.3 1007.8 0.0
18/05:30am 22.7 22.2 18.7 78 2.6 NNE 19 22 10 12 1009.3 1007.8 0.0
18/05:00am 22.8 22.7 18.8 78 2.6 NNE 17 20 9 11 1009.4 1007.9 0.0
18/04:30am 23.1 22.7 18.8 77 2.8 NNE 19 24 10 13 1009.3 1007.8 0.0
18/04:00am 23.1 23.4 18.8 77 2.8 N 15 20 8 11 1009.3 1007.8 0.0
18/03:30am 23.4 22.9 18.7 75 3.0 NNE 19 24 10 13 1009.4 1007.9 0.0
18/03:00am 23.8 23.6 18.4 72 3.4 NNE 17 20 9 11 1009.6 1008.2 0.0
18/02:30am 24.2 24.5 18.8 72 3.5 NNE 15 19 8 10 1009.9 1008.5 0.0
18/02:00am 24.5 24.9 18.9 71 3.6 N 15 22 8 12 1009.9 1008.5 0.0
18/01:30am 24.8 24.8 19.0 70 3.7 N 17 24 9 13 1010.1 1008.7 0.0
18/01:00am 25.4 24.9 19.1 68 4.1 NNE 20 32 11 17 1010.4 1009.0 0.0
18/12:30am 25.7 24.0 18.9 66 4.4 N 26 37 14 20 1010.1 1008.7 0.0
18/12:00am 26.4 24.8 19.3 65 4.6 N 26 35 14 19 1009.9 1008.5 0.0
 
Date/Time
EDT
Temp
°C
App
Temp
°C
Dew
Point
°C
Rel
Hum
%
Delta-T
°C
Wind Press
QNH
hPa
Press
MSL
hPa
Rain since
9am
mm
Dir  Spd
km/h
Gust
km/h
Spd
kts
Gust
kts
17/11:30pm 27.3 25.8 19.4 62 5.2 N 26 35 14 19 1009.8 1008.4 0.0
17/11:00pm 27.5 26.3 19.3 61 5.4 NNE 24 37 13 20 1009.8 1008.4 0.0
17/10:30pm 26.6 28.5 18.5 61 5.2 S 6 7 3 4 1009.5 1008.1 0.0
17/10:00pm 26.8 28.5 18.4 60 5.4 SSW 7 9 4 5 1009.5 1008.1 0.0
17/09:30pm 27.1 27.9 16.4 52 6.7 SW 7 9 4 5 1009.4 1007.9 0.0
17/09:00pm 28.2 29.1 16.5 49 7.4 SW 7 7 4 4 1009.1 1007.6 0.0
17/08:30pm 29.8 30.5 16.2 43 8.6 SSW 7 9 4 5 1008.9 1007.4 0.0
17/08:00pm 31.2 32.5 15.2 38 10.0 SW 2 6 1 3 1008.5 1007.0 0.0
17/07:30pm 32.2 32.4 15.7 37 10.4 WSW 9 11 5 6 1008.1 1006.6 0.0
17/07:00pm 32.5 32.1 15.1 35 10.9 WSW 11 13 6 7 1007.8 1006.3 0.0
17/06:30pm 34.1 34.6 15.5 32 11.8 WNW 7 15 4 8 1007.6 1006.1 0.0
17/06:00pm 33.9 33.6 15.4 33 11.7 W 11 19 6 10 1007.6 1006.1 0.0
17/05:30pm 34.0 32.8 14.0 30 12.4 SW 13 22 7 12 1007.7 1006.2 0.0
17/05:00pm 33.6 33.0 14.6 31 11.9 NNW 11 17 6 9 1007.8 1006.3 0.0
17/04:30pm 34.0 33.5 15.0 32 11.9 NW 11 22 6 12 1008.2 1006.7 0.0
17/04:00pm 32.8 32.0 16.2 37 10.6 NW 15 24 8 13 1008.5 1007.0 0.0
17/03:30pm 33.6 33.4 17.7 38 10.3 NW 15 22 8 12 1009.0 1007.5 0.0
17/03:00pm 32.5 33.4 17.5 40 9.7 NW 9 15 5 8 1009.6 1008.2 0.0
17/02:30pm 31.9 32.2 18.8 45 8.6 NNE 15 24 8 13 1009.9 1008.5 0.0
17/02:00pm 31.9 33.4 18.8 45 8.6 NNE 9 28 5 15 1010.3 1008.9 0.0
17/01:30pm 31.2 31.6 18.2 46 8.5 NNW 13 20 7 11 1010.6 1009.2 0.0
17/01:00pm 30.2 31.3 18.0 48 7.9 NE 9 19 5 10 1011.1 1009.6 0.0
17/12:30pm 29.1 29.5 17.3 49 7.5 N 11 19 6 10 1011.6 1010.1 0.0
17/12:00pm 29.1 29.1 17.3 49 7.5 N 13 20 7 11 1012.0 1010.5 0.0
17/11:30am 28.5 27.7 17.1 50 7.2 NE 17 26 9 14 1012.3 1010.8 0.0
17/11:00am 28.2 27.0 17.1 51 7.0 NE 19 30 10 16 1012.5 1011.0 0.0
17/10:30am 26.7 25.0 16.3 53 6.5 ENE 20 28 11 15 1012.8 1011.4 0.0
17/10:00am 25.5 23.0 16.1 56 5.8 ENE 24 33 13 18 1012.9 1011.5 0.0
17/09:30am 24.5 22.3 16.0 59 5.2 ENE 22 32 12 17 1013.2 1011.8 0.0
17/09:00am 23.6 21.0 15.9 62 4.7 ENE 24 33 13 18 1013.1 1011.7 0.0
17/08:30am 22.2 19.1 15.5 66 4.1 E 26 35 14 19 1013.1 1011.7 0.0
17/08:00am 21.5 19.2 15.6 69 3.6 E 22 30 12 16 1013.1 1011.7 0.0
17/07:30am 20.9 18.9 15.4 71 3.3 E 20 30 11 16 1013.1 1011.7 0.0
17/07:00am 20.5 18.7 15.5 73 3.0 E 19 24 10 13 1013.2 1011.8 0.0
17/06:30am 20.4 18.6 15.4 73 3.0 E 19 28 10 15 1012.9 1011.5 0.0
17/06:00am 20.5 18.1 15.5 73 3.0 E 22 32 12 17 1012.8 1011.4 0.0
17/05:30am 20.5 18.7 15.5 73 3.0 E 19 30 10 16 1012.6 1011.1 0.0
17/05:00am 20.7 18.0 15.5 72 3.1 E 24 37 13 20 1012.5 1011.0 0.0
17/04:30am 20.9 18.9 15.4 71 3.3 E 20 33 11 18 1012.5 1011.0 0.0
17/04:00am 21.2 18.8 15.5 70 3.4 E 22 33 12 18 1012.4 1010.9 0.0
17/03:30am 21.3 18.2 15.6 70 3.4 E 26 35 14 19 1012.2 1010.7 0.0
17/03:00am 21.4 18.7 15.5 69 3.6 E 24 33 13 18 1012.3 1010.8 0.0
17/02:30am 21.6 18.2 15.7 69 3.6 E 28 39 15 21 1012.3 1010.8 0.0
17/02:00am 21.7 19.0 15.5 68 3.7 E 24 35 13 19 1012.3 1010.8 0.0
17/01:30am 21.8 17.9 15.6 68 3.8 E 30 43 16 23 1012.6 1011.1 0.0
17/01:00am 22.0 18.5 15.6 67 3.9 E 28 41 15 22 1012.7 1011.3 0.0
17/12:30am 22.3 19.7 15.9 67 3.9 E 24 37 13 20 1013.1 1011.7 0.0
17/12:00am 22.8 19.8 15.9 65 4.2 E 26 41 14 22 1013.0 1011.6 0.0
 
Date/Time
EDT
Temp
°C
App
Temp
°C
Dew
Point
°C
Rel
Hum
%
Delta-T
°C
Wind Press
QNH
hPa
Press
MSL
hPa
Rain since
9am
mm
Dir  Spd
km/h
Gust
km/h
Spd
kts
Gust
kts
16/11:32pm 23.4 20.0 15.7 62 4.7 E 28 46 15 25 1012.8 1011.4 0.0
16/11:30pm 23.4 19.6 15.7 62 4.7 E 30 46 16 25 1012.8 1011.4 0.0
16/11:14pm 23.7 20.4 16.0 62 4.7 E 28 46 15 25 1012.8 1011.4 0.0
16/11:00pm 24.0 20.6 15.8 60 5.0 E 28 39 15 21 1012.9 1011.5 0.0
16/10:30pm 24.7 21.7 15.9 58 5.4 E 26 35 14 19 1012.7 1011.3 0.0
16/10:00pm 25.6 21.7 15.6 54 6.1 E 30 43 16 23 1012.4 1010.9 0.0
16/09:30pm 26.2 22.8 15.9 53 6.4 E 28 41 15 22 1012.0 1010.5 0.0
16/09:03pm 26.9 23.0 15.6 50 7.0 E 30 48 16 26 1011.8 1010.3 0.0
16/09:00pm 27.0 23.6 15.7 50 7.0 E 28 41 15 22 1011.8 1010.3 0.0
16/08:30pm 28.5 25.6 15.1 44 8.3 E 24 37 13 20 1011.1 1009.6 0.0
16/08:00pm 30.3 28.0 14.0 37 10.0 E 19 28 10 15 1010.4 1009.0 0.0
16/07:30pm 31.3 29.6 11.1 29 11.8 S 11 13 6 7 1010.1 1008.7 0.0
16/07:00pm 32.0 29.9 11.2 28 12.3 SSE 13 20 7 11 1009.8 1008.4 0.0
16/06:30pm 32.3 30.1 10.9 27 12.5 SE 13 20 7 11 1009.7 1008.3 0.0
16/06:00pm 32.2 29.4 11.4 28 12.3 S 17 30 9 16 1009.7 1008.3 0.0
16/05:30pm 31.7 29.6 12.5 31 11.5 S 15 20 8 11 1009.7 1008.3 0.0
16/05:00pm 32.2 30.6 12.9 31 11.7 SSW 13 19 7 10 1009.8 1008.4 0.0
16/04:30pm 32.4 32.0 13.1 31 11.7 SSW 7 13 4 7 1009.8 1008.4 0.0
16/04:00pm 31.8 30.7 14.4 34 10.7 SW 13 17 7 9 1010.1 1008.7 0.0
16/03:30pm 31.6 31.5 13.8 34 10.9 SSW 7 11 4 6 1010.5 1009.1 0.0
16/03:00pm 31.7 31.4 14.4 35 10.7 E 9 17 5 9 1010.8 1009.4 0.0
16/02:30pm 30.6 30.7 15.5 40 9.4 ESE 9 17 5 9 1011.2 1009.7 0.0
16/02:00pm 30.6 30.7 15.5 40 9.4 SSE 9 15 5 8 1011.5 1010.0 0.0
16/01:30pm 29.8 29.1 15.5 42 8.9 NE 13 24 7 13 1011.7 1010.2 0.0
16/01:00pm 30.3 29.8 16.0 42 9.0 ENE 13 28 7 15 1011.9 1010.4 0.0
16/12:30pm 29.8 29.5 17.3 47 8.0 ENE 15 20 8 11 1012.5 1011.0 0.0
16/12:00pm 28.9 28.1 17.1 49 7.5 ENE 17 28 9 15 1012.9 1011.5 0.0
16/11:30am 28.0 26.4 16.6 50 7.2 ENE 20 28 11 15 1013.2 1011.8 0.0
16/11:00am 26.7 25.0 16.3 53 6.5 ENE 20 30 11 16 1013.3 1011.9 0.0
16/10:30am 26.2 24.5 16.2 54 6.2 ENE 20 30 11 16 1013.3 1011.9 0.0
16/10:00am 25.5 22.2 16.1 56 5.8 ENE 28 35 15 19 1013.0 1011.6 0.0
16/09:30am 24.4 21.1 16.1 60 5.1 E 28 37 15 20 1012.9 1011.5 0.0
16/09:00am 24.0 21.2 16.3 62 4.8 ENE 26 35 14 19 1012.7 1011.3 0.0
16/08:30am 22.9 20.0 16.0 65 4.2 E 26 37 14 20 1012.6 1011.1 0.0
16/08:00am 22.0 19.0 15.8 68 3.8 E 26 37 14 20 1012.2 1010.7 0.0
16/07:30am 21.4 19.1 15.7 70 3.4 E 22 32 12 17 1011.9 1010.4 0.0
16/07:00am 21.0 19.1 15.8 72 3.1 E 20 26 11 14 1011.3 1009.8 0.0
16/06:30am 20.8 19.3 16.2 75 2.8 E 19 26 10 14 1011.1 1009.6 0.0
16/06:00am 20.9 19.7 16.1 74 2.9 E 17 24 9 13 1010.6 1009.2 0.0
16/05:30am 21.4 19.8 15.9 71 3.3 E 19 24 10 13 1010.2 1008.8 0.0
16/05:00am 21.6 20.8 16.1 71 3.4 E 15 20 8 11 1010.0 1008.6 0.0
16/04:30am 22.0 21.8 16.7 72 3.3 E 13 17 7 9 1009.9 1008.5 0.0

Other formats

Comma delimited format used in spreadsheet applications
http://www.bom.gov.au/fwo/IDN60801/IDN60801.95722.axf

JavaScript Object Notation format (JSON) in row-major order
http://www.bom.gov.au/fwo/IDN60801/IDN60801.95722.json

Data quality

Most of these data are generated automatically and are frequently updated. Quality checks on data are not normally performed. It is possible for incorrect values to appear. Refer to information at About Latest Weather Observations and please check the disclaimer before using these data.